National Weather Service Raw Text Product

Displaying AFOS PIL: TAFDSM Received: 2017-08-13 17:22 UTC


760 
FTUS43 KDMX 131722 CCA
TAFDSM
TAF COR
KDSM 131722Z 1318/1418 15003KT P6SM FEW060 OVC130
     FM141600 20006KT P6SM BKN045=